Aeroporto :
LOGIN :

Iscrizione | Disclaimer

   EN    FR    IT 

 










Sommario :    VFR   VFR Marginale   IFR   IFR Intensivo   IFR Molto Intensivo
Visibilità : 
Base nubi : 
>= 8 km
>= 3000ft
5 / 8 km
1000 / 3000 ft
1500m / 5 km
500 / 1000 ft
800 / 1500m
200 / 500 ft
< 800m
< 200 ft
Simboli :   Temporali  Nebbia  Neve Forte  Precipitazioni Forti  Vento > 20 kt
SIGMETs :   Varie  Temporali  Ghiacco  Turbolenza  Onda orograficha  Ceneri Vulcaniche






- Altitudine del aeroporto : 302 ft


LFPM - Melun Villaroche

ULTIMO METAR :
  • 211600Z AUTO 14007KT 9999 SCT036 OVC058 09/05 Q1003

METARs OBSOLETI :
  • 211530Z AUTO 14006KT 9999 FEW039 BKN058 OVC084 09/05 Q1003
  • 211500Z AUTO 14005KT 9999 BKN047 BKN054 OVC076 10/05 Q1003
  • 211430Z AUTO 14005KT CAVOK 10/05 Q1003
  • 211400Z AUTO 13007KT CAVOK 10/05 Q1003
  • 211330Z AUTO 15006KT CAVOK 10/05 Q1003
  • 211300Z AUTO 15007KT CAVOK 11/05 Q1003

Previsioni scadute.
ATIS : +33 1 64 14 28 44



MetMap, La meteo Aeronautica in un colpo d'occhio ! - Copyright ORBIFLY Dicembre 2007 - Disclaimer

ORBIFLY MET'MAP TEAM :

Programmazione e sviluppo : Alexandra Zaïnal
Concezione e sviluppo : Baudouin d'Aumeries
Co-Programmazione e sviluppo : Marc-Olivier Méhu
Supporto tecnico e logistico : Manuel Goepfert
Aiuto per la traduzione : Arnaldo La Scala

Contatto : metmap@orbifly.com




FONTI E CREDITI :

   NOAA